EZY124 ESGG-EGSS
Flight info
| Callsign | EZY124 |
|---|---|
| Flight time | 1h 33m |
| Altitude | 38000 |
| Route | VADIN DCT IRKAM DCT GREFI DCT LONAM DCT BINBO DCT AKOKO N866 KUBAX Z150 MEGEL |
| Aircraft | A320/M-SDE3FGHIRWY/LB1 |
Departure
| Time | 2026-04-30 20:07 |
|---|---|
| Airport | Göteborg Landvetter Airport (ESGG) |
Arrival
| Time | 2026-04-30 21:41 |
|---|---|
| Airport | London Stansted Airport (EGSS) |
| Time | Latitude | Longitude | Altitude | Speed | Heading |
|---|---|---|---|---|---|
| 2026-04-30 19:39 | 57.66728 | 12.29273 | 526 ft | 0 kts | 116° |
| 2026-04-30 19:58 | 57.66734 | 12.29250 | 526 ft | 2 kts | 112° |
| 2026-04-30 19:59 | 57.66740 | 12.29222 | 526 ft | 2 kts | 109° |
| 2026-04-30 19:59 | 57.66745 | 12.29193 | 526 ft | 2 kts | 101° |
| 2026-04-30 19:59 | 57.66741 | 12.29135 | 526 ft | 2 kts | 32° |
| 2026-04-30 20:00 | 57.66732 | 12.29126 | 526 ft | 1 kts | 23° |
| 2026-04-30 20:00 | 57.66731 | 12.29125 | 526 ft | 0 kts | 23° |
| 2026-04-30 20:03 | 57.66732 | 12.29126 | 526 ft | 1 kts | 23° |
| 2026-04-30 20:03 | 57.66755 | 12.29133 | 526 ft | 5 kts | 341° |
| 2026-04-30 20:03 | 57.66788 | 12.29050 | 526 ft | 11 kts | 298° |
| 2026-04-30 20:03 | 57.66870 | 12.29028 | 527 ft | 16 kts | 28° |
| 2026-04-30 20:04 | 57.66985 | 12.29134 | 528 ft | 21 kts | 26° |
| 2026-04-30 20:04 | 57.67124 | 12.29260 | 529 ft | 23 kts | 26° |
| 2026-04-30 20:04 | 57.67241 | 12.29366 | 531 ft | 14 kts | 26° |
| 2026-04-30 20:05 | 57.67394 | 12.29472 | 532 ft | 11 kts | 341° |
| 2026-04-30 20:05 | 57.67442 | 12.29348 | 532 ft | 14 kts | 296° |
| 2026-04-30 20:05 | 57.67460 | 12.29256 | 532 ft | 0 kts | 272° |
| 2026-04-30 20:06 | 57.67460 | 12.29235 | 532 ft | 5 kts | 272° |
| 2026-04-30 20:06 | 57.67451 | 12.29115 | 530 ft | 14 kts | 250° |
| 2026-04-30 20:06 | 57.67385 | 12.28978 | 530 ft | 13 kts | 207° |
| 2026-04-30 20:06 | 57.67380 | 12.28974 | 530 ft | 0 kts | 206° |
| 2026-04-30 20:07 | 57.67347 | 12.28944 | 530 ft | 28 kts | 206° |
| 2026-04-30 20:07 | 57.66873 | 12.28511 | 526 ft | 121 kts | 206° |
| 2026-04-30 20:07 | 57.64800 | 12.26637 | 1664 ft | 176 kts | 210° |
| 2026-04-30 20:08 | 57.63694 | 12.25635 | 2461 ft | 181 kts | 211° |
| 2026-04-30 20:08 | 57.62495 | 12.24534 | 2811 ft | 203 kts | 210° |
| 2026-04-30 20:08 | 57.61149 | 12.23359 | 3191 ft | 224 kts | 202° |
| 2026-04-30 20:08 | 57.59528 | 12.22714 | 3588 ft | 252 kts | 189° |
| 2026-04-30 20:09 | 57.57715 | 12.22446 | 4250 ft | 268 kts | 185° |
| 2026-04-30 20:09 | 57.55815 | 12.22300 | 4823 ft | 277 kts | 183° |
| 2026-04-30 20:09 | 57.51943 | 12.21813 | 5471 ft | 281 kts | 187° |
| 2026-04-30 20:10 | 57.48019 | 12.21043 | 7378 ft | 288 kts | 187° |
| 2026-04-30 20:10 | 57.46016 | 12.20608 | 8291 ft | 291 kts | 190° |
| 2026-04-30 20:10 | 57.44068 | 12.19526 | 9192 ft | 294 kts | 206° |
| 2026-04-30 20:11 | 57.40833 | 12.14829 | 10730 ft | 309 kts | 227° |
| 2026-04-30 20:11 | 57.39277 | 12.11872 | 11095 ft | 330 kts | 226° |
| 2026-04-30 20:11 | 57.37646 | 12.08788 | 11758 ft | 338 kts | 226° |
| 2026-04-30 20:12 | 57.34315 | 12.02536 | 13296 ft | 348 kts | 226° |
| 2026-04-30 20:12 | 57.32596 | 11.99323 | 14039 ft | 354 kts | 226° |
| 2026-04-30 20:12 | 57.30853 | 11.96068 | 14753 ft | 357 kts | 226° |
| 2026-04-30 20:13 | 57.29101 | 11.92797 | 15453 ft | 360 kts | 226° |
| 2026-04-30 20:13 | 57.27328 | 11.89492 | 16139 ft | 363 kts | 226° |
| 2026-04-30 20:13 | 57.25542 | 11.86164 | 16819 ft | 367 kts | 226° |
| 2026-04-30 20:13 | 57.23736 | 11.82805 | 17499 ft | 370 kts | 226° |
| 2026-04-30 20:14 | 57.21914 | 11.79415 | 18173 ft | 374 kts | 226° |
| 2026-04-30 20:14 | 57.20071 | 11.75996 | 18819 ft | 378 kts | 226° |
| 2026-04-30 20:14 | 57.18204 | 11.72548 | 19383 ft | 381 kts | 226° |
| 2026-04-30 20:14 | 57.16322 | 11.69081 | 19959 ft | 385 kts | 226° |
| 2026-04-30 20:15 | 57.14442 | 11.65545 | 20521 ft | 387 kts | 231° |
| 2026-04-30 20:15 | 57.12848 | 11.61549 | 21071 ft | 389 kts | 241° |
| 2026-04-30 20:15 | 57.11478 | 11.57239 | 21613 ft | 392 kts | 242° |
| 2026-04-30 20:15 | 57.10092 | 11.52878 | 22139 ft | 396 kts | 242° |
| 2026-04-30 20:16 | 57.08691 | 11.48497 | 22674 ft | 399 kts | 242° |
| 2026-04-30 20:16 | 57.07271 | 11.44079 | 23203 ft | 402 kts | 242° |
| 2026-04-30 20:16 | 57.05840 | 11.39638 | 23727 ft | 406 kts | 242° |
| 2026-04-30 20:16 | 57.04395 | 11.35166 | 24201 ft | 409 kts | 242° |
| 2026-04-30 20:17 | 57.02935 | 11.30656 | 24640 ft | 412 kts | 242° |
| 2026-04-30 20:17 | 57.01465 | 11.26122 | 25059 ft | 415 kts | 242° |
| 2026-04-30 20:17 | 57.00482 | 11.23096 | 25341 ft | 417 kts | 242° |
| 2026-04-30 20:17 | 56.98502 | 11.17019 | 25908 ft | 420 kts | 242° |
| 2026-04-30 20:18 | 56.97000 | 11.12409 | 26314 ft | 423 kts | 241° |
| 2026-04-30 20:18 | 56.95485 | 11.07772 | 26727 ft | 425 kts | 241° |
| 2026-04-30 20:18 | 56.93959 | 11.03108 | 27132 ft | 428 kts | 241° |
| 2026-04-30 20:18 | 56.92921 | 10.99944 | 27405 ft | 430 kts | 241° |
| 2026-04-30 20:19 | 56.91372 | 10.95234 | 27805 ft | 432 kts | 241° |
| 2026-04-30 20:19 | 56.89816 | 10.90505 | 28193 ft | 435 kts | 241° |
| 2026-04-30 20:19 | 56.88248 | 10.85749 | 28572 ft | 438 kts | 241° |
| 2026-04-30 20:19 | 56.86669 | 10.80967 | 28956 ft | 441 kts | 241° |
| 2026-04-30 20:20 | 56.85079 | 10.76162 | 29334 ft | 443 kts | 241° |
| 2026-04-30 20:20 | 56.83478 | 10.71337 | 29712 ft | 446 kts | 241° |
| 2026-04-30 20:20 | 56.81861 | 10.66484 | 30084 ft | 448 kts | 241° |
| 2026-04-30 20:20 | 56.80254 | 10.61668 | 30452 ft | 451 kts | 241° |
| 2026-04-30 20:21 | 56.78619 | 10.56773 | 30756 ft | 453 kts | 241° |
| 2026-04-30 20:21 | 56.76974 | 10.51860 | 31083 ft | 454 kts | 241° |
| 2026-04-30 20:21 | 56.75327 | 10.46945 | 31409 ft | 455 kts | 241° |
| 2026-04-30 20:21 | 56.73674 | 10.42010 | 31707 ft | 456 kts | 241° |
| 2026-04-30 20:22 | 56.72013 | 10.37060 | 31999 ft | 458 kts | 240° |
| 2026-04-30 20:22 | 56.70348 | 10.32125 | 32378 ft | 458 kts | 240° |
| 2026-04-30 20:22 | 56.68676 | 10.27191 | 32794 ft | 456 kts | 240° |
| 2026-04-30 20:22 | 56.67013 | 10.22288 | 33199 ft | 455 kts | 240° |
| 2026-04-30 20:23 | 56.65351 | 10.17388 | 33604 ft | 454 kts | 240° |
| 2026-04-30 20:23 | 56.63689 | 10.12502 | 34014 ft | 453 kts | 240° |
| 2026-04-30 20:23 | 56.62029 | 10.07632 | 34419 ft | 452 kts | 240° |
| 2026-04-30 20:23 | 56.60377 | 10.02784 | 34775 ft | 451 kts | 240° |
| 2026-04-30 20:24 | 56.58746 | 9.98002 | 35121 ft | 450 kts | 240° |
| 2026-04-30 20:24 | 56.57089 | 9.93168 | 35441 ft | 449 kts | 240° |
| 2026-04-30 20:24 | 56.55438 | 9.88367 | 35772 ft | 448 kts | 240° |
| 2026-04-30 20:24 | 56.53788 | 9.83579 | 36098 ft | 447 kts | 240° |
| 2026-04-30 20:25 | 56.50509 | 9.74068 | 36736 ft | 444 kts | 240° |
| 2026-04-30 20:25 | 56.48876 | 9.69332 | 37038 ft | 443 kts | 240° |
| 2026-04-30 20:26 | 56.45604 | 9.59895 | 37610 ft | 441 kts | 239° |
| 2026-04-30 20:26 | 56.42339 | 9.50541 | 38161 ft | 439 kts | 239° |
| 2026-04-30 20:26 | 56.40706 | 9.45877 | 38411 ft | 439 kts | 239° |
| 2026-04-30 20:27 | 56.34218 | 9.27396 | 38464 ft | 436 kts | 239° |
| 2026-04-30 20:28 | 56.27672 | 9.08929 | 38463 ft | 436 kts | 239° |
| 2026-04-30 20:30 | 56.19522 | 8.86071 | 38475 ft | 435 kts | 239° |
| 2026-04-30 20:31 | 56.09651 | 8.58734 | 38486 ft | 436 kts | 238° |
| 2026-04-30 20:32 | 56.01176 | 8.36244 | 38482 ft | 435 kts | 237° |
| 2026-04-30 20:33 | 55.96012 | 8.22908 | 38482 ft | 435 kts | 237° |
| 2026-04-30 20:34 | 55.90894 | 8.09641 | 38480 ft | 434 kts | 237° |
| 2026-04-30 20:35 | 55.85728 | 7.96374 | 38477 ft | 434 kts | 237° |
| 2026-04-30 20:35 | 55.80540 | 7.83147 | 38479 ft | 435 kts | 237° |
| 2026-04-30 20:36 | 55.77080 | 7.74339 | 38484 ft | 434 kts | 237° |
| 2026-04-30 20:37 | 55.71886 | 7.61140 | 38490 ft | 434 kts | 237° |
| 2026-04-30 20:37 | 55.68409 | 7.52376 | 38486 ft | 434 kts | 236° |
| 2026-04-30 20:38 | 55.64927 | 7.43640 | 38481 ft | 434 kts | 236° |
| 2026-04-30 20:38 | 55.61467 | 7.34982 | 38475 ft | 434 kts | 236° |
| 2026-04-30 20:39 | 55.56235 | 7.21950 | 38464 ft | 433 kts | 236° |
| 2026-04-30 20:40 | 55.51001 | 7.08958 | 38474 ft | 432 kts | 236° |
| 2026-04-30 20:40 | 55.47507 | 7.00320 | 38470 ft | 432 kts | 236° |
| 2026-04-30 20:41 | 55.42251 | 6.87399 | 38472 ft | 433 kts | 236° |
| 2026-04-30 20:41 | 55.38736 | 6.78798 | 38469 ft | 433 kts | 236° |
| 2026-04-30 20:42 | 55.35218 | 6.70217 | 38470 ft | 432 kts | 236° |
| 2026-04-30 20:43 | 55.29938 | 6.57374 | 38465 ft | 432 kts | 235° |
| 2026-04-30 20:43 | 55.26417 | 6.48860 | 38465 ft | 431 kts | 235° |
| 2026-04-30 20:44 | 55.21123 | 6.36120 | 38466 ft | 430 kts | 235° |
| 2026-04-30 20:45 | 55.14069 | 6.19203 | 38463 ft | 431 kts | 235° |
| 2026-04-30 20:45 | 55.10517 | 6.10763 | 38447 ft | 430 kts | 235° |
| 2026-04-30 20:46 | 55.03438 | 5.93997 | 38462 ft | 429 kts | 235° |
| 2026-04-30 20:47 | 54.97742 | 5.81996 | 38454 ft | 430 kts | 226° |
| 2026-04-30 20:48 | 54.91352 | 5.71067 | 38450 ft | 429 kts | 225° |
| 2026-04-30 20:48 | 54.87097 | 5.63790 | 38441 ft | 429 kts | 226° |
| 2026-04-30 20:49 | 54.82839 | 5.56529 | 38438 ft | 429 kts | 226° |
| 2026-04-30 20:50 | 54.76432 | 5.45677 | 38430 ft | 429 kts | 225° |
| 2026-04-30 20:50 | 54.72156 | 5.38476 | 38426 ft | 429 kts | 225° |
| 2026-04-30 20:51 | 54.67883 | 5.31260 | 38434 ft | 428 kts | 225° |
| 2026-04-30 20:51 | 54.61500 | 5.20525 | 38434 ft | 427 kts | 224° |
| 2026-04-30 20:52 | 54.57227 | 5.13391 | 38439 ft | 427 kts | 224° |
| 2026-04-30 20:53 | 54.50830 | 5.02757 | 38423 ft | 426 kts | 224° |
| 2026-04-30 20:53 | 54.46561 | 4.95670 | 38422 ft | 426 kts | 224° |
| 2026-04-30 20:54 | 54.40184 | 4.85137 | 38408 ft | 426 kts | 224° |
| 2026-04-30 20:55 | 54.33774 | 4.74600 | 38402 ft | 426 kts | 224° |
| 2026-04-30 20:55 | 54.29492 | 4.67585 | 38396 ft | 426 kts | 224° |
| 2026-04-30 20:56 | 54.23061 | 4.57083 | 38394 ft | 426 kts | 224° |
| 2026-04-30 20:57 | 54.16621 | 4.46628 | 38395 ft | 426 kts | 223° |
| 2026-04-30 20:57 | 54.12328 | 4.39681 | 38387 ft | 425 kts | 223° |
| 2026-04-30 20:58 | 54.05871 | 4.29272 | 38385 ft | 426 kts | 223° |
| 2026-04-30 20:58 | 54.01568 | 4.22335 | 38384 ft | 426 kts | 223° |
| 2026-04-30 20:59 | 53.95841 | 4.13152 | 38386 ft | 424 kts | 222° |
| 2026-04-30 21:00 | 53.87257 | 3.99505 | 38385 ft | 422 kts | 222° |
| 2026-04-30 21:01 | 53.80736 | 3.89501 | 38375 ft | 421 kts | 218° |
| 2026-04-30 21:02 | 53.73887 | 3.80216 | 38363 ft | 420 kts | 217° |
| 2026-04-30 21:02 | 53.69351 | 3.74065 | 38356 ft | 420 kts | 218° |
| 2026-04-30 21:03 | 53.64815 | 3.67817 | 38349 ft | 420 kts | 218° |
| 2026-04-30 21:03 | 53.60294 | 3.61582 | 38347 ft | 420 kts | 217° |
| 2026-04-30 21:04 | 53.55771 | 3.55370 | 38355 ft | 418 kts | 218° |
| 2026-04-30 21:04 | 53.48991 | 3.46125 | 38340 ft | 417 kts | 218° |
| 2026-04-30 21:05 | 53.44503 | 3.40027 | 38335 ft | 417 kts | 217° |
| 2026-04-30 21:05 | 53.39917 | 3.34083 | 38319 ft | 416 kts | 211° |
| 2026-04-30 21:06 | 53.34814 | 3.29573 | 38319 ft | 414 kts | 206° |
| 2026-04-30 21:06 | 53.29678 | 3.25207 | 38274 ft | 414 kts | 205° |
| 2026-04-30 21:07 | 53.24531 | 3.20838 | 38284 ft | 414 kts | 206° |
| 2026-04-30 21:07 | 53.19386 | 3.16488 | 38280 ft | 414 kts | 205° |
| 2026-04-30 21:08 | 53.14241 | 3.12133 | 38273 ft | 415 kts | 206° |
| 2026-04-30 21:08 | 53.09128 | 3.07822 | 38281 ft | 415 kts | 206° |
| 2026-04-30 21:09 | 53.03978 | 3.03479 | 38223 ft | 416 kts | 206° |
| 2026-04-30 21:09 | 53.01376 | 3.01290 | 37492 ft | 419 kts | 205° |
| 2026-04-30 21:09 | 52.98790 | 2.99125 | 36881 ft | 417 kts | 205° |
| 2026-04-30 21:10 | 52.96186 | 2.96944 | 36293 ft | 416 kts | 206° |
| 2026-04-30 21:10 | 52.93749 | 2.94387 | 35781 ft | 415 kts | 215° |
| 2026-04-30 21:10 | 52.91567 | 2.91262 | 35280 ft | 413 kts | 220° |
| 2026-04-30 21:10 | 52.89455 | 2.88062 | 34768 ft | 410 kts | 220° |
| 2026-04-30 21:11 | 52.87351 | 2.84893 | 34276 ft | 408 kts | 220° |
| 2026-04-30 21:11 | 52.85254 | 2.81747 | 33737 ft | 405 kts | 220° |
| 2026-04-30 21:11 | 52.83175 | 2.78639 | 33209 ft | 402 kts | 220° |
| 2026-04-30 21:11 | 52.81133 | 2.75590 | 32760 ft | 398 kts | 219° |
| 2026-04-30 21:12 | 52.79082 | 2.72526 | 32496 ft | 397 kts | 219° |
| 2026-04-30 21:12 | 52.77041 | 2.69469 | 32236 ft | 396 kts | 220° |
| 2026-04-30 21:12 | 52.75006 | 2.66419 | 31938 ft | 392 kts | 220° |
| 2026-04-30 21:12 | 52.72993 | 2.63406 | 31456 ft | 389 kts | 220° |
| 2026-04-30 21:13 | 52.70992 | 2.60422 | 30976 ft | 386 kts | 220° |
| 2026-04-30 21:13 | 52.69005 | 2.57467 | 30520 ft | 383 kts | 219° |
| 2026-04-30 21:13 | 52.67026 | 2.54531 | 30015 ft | 380 kts | 219° |
| 2026-04-30 21:13 | 52.65080 | 2.51643 | 29576 ft | 374 kts | 219° |
| 2026-04-30 21:14 | 52.63161 | 2.48794 | 29151 ft | 370 kts | 219° |
| 2026-04-30 21:14 | 52.61261 | 2.45978 | 28724 ft | 365 kts | 219° |
| 2026-04-30 21:14 | 52.59380 | 2.43195 | 28319 ft | 360 kts | 219° |
| 2026-04-30 21:14 | 52.57544 | 2.40479 | 27910 ft | 357 kts | 219° |
| 2026-04-30 21:15 | 52.55707 | 2.37768 | 27479 ft | 353 kts | 219° |
| 2026-04-30 21:15 | 52.53888 | 2.35094 | 27060 ft | 350 kts | 219° |
| 2026-04-30 21:15 | 52.52080 | 2.32437 | 26631 ft | 347 kts | 218° |
| 2026-04-30 21:15 | 52.50285 | 2.29801 | 26213 ft | 345 kts | 219° |
| 2026-04-30 21:16 | 52.48503 | 2.27187 | 25788 ft | 343 kts | 219° |
| 2026-04-30 21:16 | 52.46722 | 2.24576 | 25319 ft | 342 kts | 219° |
| 2026-04-30 21:16 | 52.44958 | 2.21987 | 24877 ft | 341 kts | 219° |
| 2026-04-30 21:16 | 52.43191 | 2.19398 | 24422 ft | 341 kts | 219° |
| 2026-04-30 21:17 | 52.41417 | 2.16804 | 23963 ft | 341 kts | 219° |
| 2026-04-30 21:17 | 52.39649 | 2.14226 | 23453 ft | 340 kts | 219° |
| 2026-04-30 21:17 | 52.37877 | 2.11648 | 22993 ft | 338 kts | 219° |
| 2026-04-30 21:17 | 52.36151 | 2.09053 | 22550 ft | 337 kts | 224° |
| 2026-04-30 21:18 | 52.34720 | 2.06022 | 22113 ft | 339 kts | 236° |
| 2026-04-30 21:18 | 52.33668 | 2.02525 | 21717 ft | 344 kts | 244° |
| 2026-04-30 21:18 | 52.32733 | 1.98925 | 21306 ft | 344 kts | 243° |
| 2026-04-30 21:18 | 52.31797 | 1.95345 | 20890 ft | 342 kts | 244° |
| 2026-04-30 21:19 | 52.30854 | 1.91776 | 20480 ft | 341 kts | 244° |
| 2026-04-30 21:19 | 52.29910 | 1.88227 | 20056 ft | 339 kts | 244° |
| 2026-04-30 21:19 | 52.28971 | 1.84709 | 19669 ft | 337 kts | 244° |
| 2026-04-30 21:19 | 52.28037 | 1.81201 | 19266 ft | 336 kts | 244° |
| 2026-04-30 21:20 | 52.27124 | 1.77749 | 18864 ft | 335 kts | 244° |
| 2026-04-30 21:20 | 52.26204 | 1.74272 | 18455 ft | 334 kts | 244° |
| 2026-04-30 21:20 | 52.25279 | 1.70794 | 18024 ft | 332 kts | 244° |
| 2026-04-30 21:20 | 52.24360 | 1.67349 | 17620 ft | 330 kts | 243° |
| 2026-04-30 21:21 | 52.23444 | 1.63924 | 17236 ft | 328 kts | 243° |
| 2026-04-30 21:21 | 52.22532 | 1.60516 | 16840 ft | 327 kts | 243° |
| 2026-04-30 21:21 | 52.20720 | 1.53742 | 16074 ft | 325 kts | 243° |
| 2026-04-30 21:22 | 52.19817 | 1.50352 | 15200 ft | 337 kts | 249° |
| 2026-04-30 21:22 | 52.17351 | 1.40090 | 14545 ft | 322 kts | 240° |
| 2026-04-30 21:23 | 52.16361 | 1.36859 | 14117 ft | 317 kts | 240° |
| 2026-04-30 21:23 | 52.15388 | 1.33639 | 13713 ft | 317 kts | 241° |
| 2026-04-30 21:23 | 52.13526 | 1.27150 | 12959 ft | 314 kts | 242° |
| 2026-04-30 21:24 | 52.12646 | 1.23958 | 12582 ft | 313 kts | 242° |
| 2026-04-30 21:24 | 52.11808 | 1.20693 | 12205 ft | 313 kts | 249° |
| 2026-04-30 21:24 | 52.11252 | 1.17295 | 11946 ft | 308 kts | 252° |
| 2026-04-30 21:24 | 52.10714 | 1.13946 | 11740 ft | 304 kts | 251° |
| 2026-04-30 21:25 | 52.09619 | 1.07338 | 11292 ft | 301 kts | 251° |
| 2026-04-30 21:25 | 52.09069 | 1.04060 | 11072 ft | 301 kts | 251° |
| 2026-04-30 21:25 | 52.08518 | 1.00781 | 10836 ft | 300 kts | 250° |
| 2026-04-30 21:26 | 52.07423 | 0.94275 | 10382 ft | 296 kts | 250° |
| 2026-04-30 21:26 | 52.06881 | 0.91053 | 10164 ft | 295 kts | 250° |
| 2026-04-30 21:27 | 52.05800 | 0.84637 | 9695 ft | 293 kts | 250° |
| 2026-04-30 21:27 | 52.05217 | 0.81480 | 9478 ft | 289 kts | 242° |
| 2026-04-30 21:27 | 52.04126 | 0.78845 | 9113 ft | 279 kts | 224° |
| 2026-04-30 21:28 | 52.01449 | 0.74308 | 8266 ft | 277 kts | 221° |
| 2026-04-30 21:28 | 52.00098 | 0.72081 | 7852 ft | 276 kts | 221° |
| 2026-04-30 21:28 | 51.97407 | 0.67684 | 7072 ft | 273 kts | 221° |
| 2026-04-30 21:29 | 51.96066 | 0.65501 | 6678 ft | 272 kts | 221° |
| 2026-04-30 21:29 | 51.92098 | 0.59098 | 5512 ft | 265 kts | 221° |
| 2026-04-30 21:30 | 51.89524 | 0.54960 | 4734 ft | 259 kts | 221° |
| 2026-04-30 21:31 | 51.85779 | 0.48755 | 3496 ft | 255 kts | 221° |
| 2026-04-30 21:31 | 51.83384 | 0.44576 | 2664 ft | 253 kts | 221° |
| 2026-04-30 21:32 | 51.81004 | 0.40374 | 2535 ft | 254 kts | 221° |
| 2026-04-30 21:32 | 51.79809 | 0.38260 | 2536 ft | 254 kts | 221° |
| 2026-04-30 21:32 | 51.78605 | 0.36147 | 2536 ft | 256 kts | 221° |
| 2026-04-30 21:32 | 51.77395 | 0.34038 | 2534 ft | 256 kts | 221° |
| 2026-04-30 21:33 | 51.76207 | 0.31961 | 2533 ft | 254 kts | 221° |
| 2026-04-30 21:33 | 51.73808 | 0.27756 | 2532 ft | 255 kts | 221° |
| 2026-04-30 21:33 | 51.72594 | 0.25652 | 2534 ft | 255 kts | 221° |
| 2026-04-30 21:34 | 51.71388 | 0.23550 | 2531 ft | 255 kts | 221° |
| 2026-04-30 21:34 | 51.69286 | 0.19102 | 2525 ft | 245 kts | 245° |
| 2026-04-30 21:34 | 51.69074 | 0.16425 | 2527 ft | 240 kts | 271° |
| 2026-04-30 21:35 | 51.69557 | 0.13906 | 2525 ft | 234 kts | 297° |
| 2026-04-30 21:35 | 51.70588 | 0.11990 | 2546 ft | 220 kts | 322° |
| 2026-04-30 21:35 | 51.71866 | 0.10843 | 2531 ft | 202 kts | 335° |
| 2026-04-30 21:35 | 51.73082 | 0.09883 | 2522 ft | 188 kts | 335° |
| 2026-04-30 21:36 | 51.74223 | 0.08978 | 2515 ft | 179 kts | 335° |
| 2026-04-30 21:36 | 51.75317 | 0.08113 | 2551 ft | 170 kts | 338° |
| 2026-04-30 21:37 | 51.78479 | 0.08571 | 2535 ft | 148 kts | 44° |
| 2026-04-30 21:37 | 51.79241 | 0.09627 | 2538 ft | 143 kts | 53° |
| 2026-04-30 21:37 | 51.79977 | 0.10730 | 2410 ft | 144 kts | 53° |
| 2026-04-30 21:37 | 51.80705 | 0.11818 | 2243 ft | 142 kts | 54° |
| 2026-04-30 21:38 | 51.81426 | 0.12894 | 2059 ft | 140 kts | 54° |
| 2026-04-30 21:38 | 51.82136 | 0.13953 | 1881 ft | 138 kts | 54° |
| 2026-04-30 21:38 | 51.82836 | 0.15000 | 1700 ft | 138 kts | 54° |
| 2026-04-30 21:38 | 51.83536 | 0.16047 | 1508 ft | 136 kts | 53° |
| 2026-04-30 21:39 | 51.84225 | 0.17076 | 1324 ft | 135 kts | 52° |
| 2026-04-30 21:39 | 51.84910 | 0.18101 | 1128 ft | 134 kts | 50° |
| 2026-04-30 21:39 | 51.85592 | 0.19121 | 961 ft | 132 kts | 47° |
| 2026-04-30 21:39 | 51.86260 | 0.20120 | 778 ft | 129 kts | 46° |
| 2026-04-30 21:40 | 51.86916 | 0.21104 | 600 ft | 129 kts | 46° |
| 2026-04-30 21:40 | 51.87571 | 0.22084 | 425 ft | 128 kts | 46° |
| 2026-04-30 21:40 | 51.88194 | 0.23036 | 332 ft | 111 kts | 45° |
| 2026-04-30 21:40 | 51.88639 | 0.23697 | 333 ft | 61 kts | 41° |
| 2026-04-30 21:41 | 51.88812 | 0.23978 | 333 ft | 22 kts | 58° |
| 2026-04-30 21:41 | 51.88878 | 0.24224 | 344 ft | 25 kts | 73° |
| 2026-04-30 21:41 | 51.88915 | 0.24413 | 344 ft | 0 kts | 72° |
| 2026-04-30 21:42 | 51.88916 | 0.24415 | 344 ft | 2 kts | 72° |
| 2026-04-30 21:42 | 51.88918 | 0.24470 | 348 ft | 12 kts | 110° |
| 2026-04-30 21:42 | 51.88840 | 0.24631 | 350 ft | 25 kts | 130° |
| 2026-04-30 21:42 | 51.88843 | 0.24778 | 349 ft | 14 kts | 43° |
| 2026-04-30 21:43 | 51.88925 | 0.24900 | 346 ft | 19 kts | 43° |
| 2026-04-30 21:43 | 51.89030 | 0.25059 | 348 ft | 23 kts | 43° |
| 2026-04-30 21:43 | 51.89128 | 0.25202 | 349 ft | 18 kts | 43° |
| 2026-04-30 21:43 | 51.89102 | 0.25365 | 335 ft | 20 kts | 134° |
| 2026-04-30 21:44 | 51.89010 | 0.25506 | 338 ft | 8 kts | 185° |
| 2026-04-30 21:44 | 51.88971 | 0.25455 | 337 ft | 0 kts | 223° |